Time;durP1;ratioP1;P1;durP2;ratioP2;P2;SDS_P1;SDS_P2;PMS_P1;PMS_P2;Temp;Humidity;BMP_temperature;BMP_pressure;BME280_temperature;BME280_humidity;BME280_pressure;Samples;Min_cycle;Max_cycle;Signal;HPM_P1;HPM_P2
2022/09/04 00:00:02;;;;;;;7.97;6.18;;;;;;;19.48;71.94;99459.53;338339;29;1128;-76
2022/09/04 00:00:27;;;;;;;7.32;5.82;;;;;;;19.47;72.11;99460.47;338253;29;923;-76
2022/09/04 00:01:13;;;;;;;7.82;6.05;;;;;;;19.47;71.73;99463.13;337248;29;1819;-76
2022/09/04 00:01:38;;;;;;;7.43;6.00;;;;;;;19.45;72.03;99459.75;343683;28;1507;-76
2022/09/04 00:02:02;;;;;;;8.68;6.40;;;;;;;19.41;72.18;99463.56;342692;28;859;-77
2022/09/04 00:02:32;;;;;;;9.32;6.60;;;;;;;19.40;72.30;99461.03;342367;28;1835;-76
2022/09/04 00:03:17;;;;;;;9.52;6.10;;;;;;;19.37;72.48;99462.09;343706;28;1299;-75
2022/09/04 00:03:37;;;;;;;7.57;6.10;;;;;;;19.35;72.47;99469.28;344140;28;1898;-76
2022/09/04 00:03:59;;;;;;;7.57;6.15;;;;;;;19.36;72.45;99461.28;344821;28;1411;-76
2022/09/04 00:04:41;;;;;;;8.07;6.18;;;;;;;19.36;72.50;99463.06;344741;28;1738;-75
2022/09/04 00:05:15;;;;;;;7.00;5.90;;;;;;;19.35;72.40;99461.38;344488;28;1714;-76
2022/09/04 00:05:54;;;;;;;8.65;6.43;;;;;;;19.34;72.58;99460.53;342143;28;1041;-76
2022/09/04 00:06:14;;;;;;;6.88;6.00;;;;;;;19.36;72.26;99460.44;343849;28;1303;-77
2022/09/04 00:06:37;;;;;;;7.80;6.30;;;;;;;19.36;72.39;99460.44;343523;28;1074;-77
2022/09/04 00:07:07;;;;;;;7.95;6.13;;;;;;;19.34;72.58;99464.97;343344;28;1056;-75
2022/09/04 00:07:34;;;;;;;7.57;6.05;;;;;;;19.33;72.68;99460.63;341314;28;1966;-76
2022/09/04 00:08:01;;;;;;;6.80;6.05;;;;;;;19.34;72.58;99467.63;342509;28;1111;-76
2022/09/04 00:08:31;;;;;;;8.60;6.45;;;;;;;19.36;72.21;99463.91;342207;28;1742;-75
2022/09/04 00:09:13;;;;;;;7.43;5.72;;;;;;;19.31;72.31;99465.19;342940;28;1810;-75
2022/09/04 00:09:51;;;;;;;6.78;6.07;;;;;;;19.31;72.33;99467.81;344654;28;1599;-76
2022/09/04 00:10:08;;;;;;;7.30;5.93;;;;;;;19.32;72.42;99470.34;343705;28;1221;-77
2022/09/04 00:10:29;;;;;;;7.82;6.43;;;;;;;19.29;72.58;99464.44;344432;28;1797;-77
2022/09/04 00:10:53;;;;;;;8.88;6.47;;;;;;;19.28;72.59;99462.78;344865;28;1025;-76
2022/09/04 00:11:36;;;;;;;7.93;6.30;;;;;;;19.30;72.77;99466.16;345205;28;1079;-77
2022/09/04 00:12:03;;;;;;;7.15;5.80;;;;;;;19.33;72.85;99465.91;344560;28;1227;-77
2022/09/04 00:12:24;;;;;;;7.05;6.00;;;;;;;19.32;72.76;99466.88;344709;28;1913;-77
2022/09/04 00:13:15;;;;;;;7.43;6.30;;;;;;;19.31;72.42;99462.53;344130;28;1063;-76
2022/09/04 00:13:31;;;;;;;10.30;6.22;;;;;;;19.33;72.65;99468.53;340377;28;1641;-76
2022/09/04 00:13:50;;;;;;;9.60;6.47;;;;;;;19.32;72.46;99469.50;345077;28;1133;-76
2022/09/04 00:14:16;;;;;;;7.70;6.25;;;;;;;19.28;72.80;99473.31;345271;28;1039;-76
2022/09/04 00:14:37;;;;;;;7.70;6.18;;;;;;;19.31;72.78;99467.81;346426;28;1010;-76
2022/09/04 00:15:12;;;;;;;8.30;6.10;;;;;;;19.33;72.44;99471.19;345236;28;1700;-76
2022/09/04 00:15:34;;;;;;;8.95;6.53;;;;;;;19.33;72.50;99468.53;346209;28;1133;-76
2022/09/04 00:16:13;;;;;;;9.68;6.72;;;;;;;19.33;72.43;99458.84;346700;28;1086;-77
2022/09/04 00:16:41;;;;;;;8.75;6.70;;;;;;;19.34;72.65;99459.72;339157;29;1401;-76
2022/09/04 00:17:02;;;;;;;8.15;6.60;;;;;;;19.36;72.48;99470.97;343459;28;1150;-76
2022/09/04 00:17:26;;;;;;;7.03;6.22;;;;;;;19.36;72.42;99463.06;343784;28;1712;-75
2022/09/04 00:17:49;;;;;;;8.27;6.18;;;;;;;19.37;72.49;99462.09;343562;28;1180;-76
2022/09/04 00:18:07;;;;;;;8.13;6.05;;;;;;;19.38;72.59;99466.44;343700;28;1004;-77
2022/09/04 00:18:22;;;;;;;8.05;6.05;;;;;;;19.39;72.51;99465.47;343878;28;1812;-75
2022/09/04 00:19:12;;;;;;;8.57;6.20;;;;;;;19.39;72.54;99465.47;343714;28;1084;-77
2022/09/04 00:19:52;;;;;;;7.72;5.97;;;;;;;19.41;72.57;99463.56;342160;28;1370;-77
2022/09/04 00:20:11;;;;;;;7.22;5.90;;;;;;;19.40;72.52;99464.53;341738;28;1828;-77
2022/09/04 00:20:53;;;;;;;7.60;6.00;;;;;;;19.37;72.53;99464.75;340790;29;1281;-76
2022/09/04 00:21:39;;;;;;;8.35;6.20;;;;;;;19.31;72.46;99467.81;343898;28;1131;-77
2022/09/04 00:21:58;;;;;;;9.63;6.05;;;;;;;19.28;72.66;99468.06;340382;28;1295;-76
2022/09/04 00:22:51;;;;;;;9.05;6.30;;;;;;;19.29;72.35;99469.72;342690;28;1059;-76
2022/09/04 00:23:30;;;;;;;6.90;5.30;;;;;;;19.33;72.12;99463.28;342384;28;1032;-76
2022/09/04 00:23:50;;;;;;;7.78;5.68;;;;;;;19.34;72.11;99457.91;342462;28;1100;-77
2022/09/04 00:24:40;;;;;;;6.97;5.90;;;;;;;19.34;71.95;99462.34;342524;28;1189;-77
2022/09/04 00:25:10;;;;;;;7.55;5.70;;;;;;;19.30;71.75;99469.63;343745;28;1768;-77
2022/09/04 00:25:52;;;;;;;8.88;5.70;;;;;;;19.26;71.72;99464.69;345119;28;1444;-77
2022/09/04 00:26:13;;;;;;;7.40;5.47;;;;;;;19.25;71.77;99468.25;344075;28;862;-77
2022/09/04 00:26:53;;;;;;;8.40;5.85;;;;;;;19.23;71.76;99462.25;342621;28;1043;-75
2022/09/04 00:27:21;;;;;;;7.45;5.70;;;;;;;19.20;72.03;99462.50;342427;28;1232;-75
2022/09/04 00:27:45;;;;;;;8.48;5.82;;;;;;;19.22;72.17;99469.31;343727;28;1090;-75
2022/09/04 00:28:10;;;;;;;6.60;5.90;;;;;;;19.24;72.07;99466.59;343745;28;1307;-76
2022/09/04 00:28:31;;;;;;;8.43;6.05;;;;;;;19.25;72.18;99468.25;344917;28;1287;-77
2022/09/04 00:28:54;;;;;;;8.48;6.05;;;;;;;19.23;72.20;99467.53;344968;28;1504;-75
2022/09/04 00:29:21;;;;;;;9.27;6.57;;;;;;;19.24;72.04;99461.31;345215;28;1058;-77
2022/09/04 00:30:10;;;;;;;7.20;6.22;;;;;;;19.27;72.14;99471.63;345277;28;1212;-77
2022/09/04 00:30:23;;;;;;;7.10;6.00;;;;;;;19.28;72.02;99468.06;345085;28;1196;-77
2022/09/04 00:30:43;;;;;;;6.80;5.68;;;;;;;19.26;72.13;99469.97;342856;28;1619;-76
2022/09/04 00:31:11;;;;;;;7.30;6.05;;;;;;;19.27;71.93;99471.63;342146;28;1043;-76
2022/09/04 00:31:38;;;;;;;7.93;6.82;;;;;;;19.28;72.11;99470.69;342514;28;1637;-77
2022/09/04 00:32:00;;;;;;;7.80;6.50;;;;;;;19.30;72.01;99474.06;343159;28;1088;-76
2022/09/04 00:32:41;;;;;;;9.45;6.43;;;;;;;19.23;72.05;99470.16;343380;28;1385;-76
2022/09/04 00:33:15;;;;;;;10.43;6.70;;;;;;;19.24;72.04;99471.84;339617;29;1321;-77
2022/09/04 00:33:47;;;;;;;7.28;6.47;;;;;;;19.18;72.14;99473.13;344489;28;1836;-77
2022/09/04 00:34:11;;;;;;;7.30;6.40;;;;;;;19.12;72.36;99474.41;344147;28;1869;-77
2022/09/04 00:34:48;;;;;;;7.78;6.40;;;;;;;19.13;72.33;99470.81;344939;28;1289;-77
2022/09/04 00:35:21;;;;;;;8.38;6.25;;;;;;;19.10;72.71;99465.78;344251;28;2031;-75
2022/09/04 00:35:42;;;;;;;7.88;5.78;;;;;;;19.10;72.61;99468.41;345225;28;1057;-76
2022/09/04 00:36:00;;;;;;;7.05;5.80;;;;;;;19.11;72.51;99471.88;343938;28;1898;-76
2022/09/04 00:36:16;;;;;;;7.07;5.90;;;;;;;19.09;72.73;99473.78;343841;28;1348;-77
2022/09/04 00:36:29;;;;;;;7.97;5.82;;;;;;;19.09;72.80;99473.78;344134;28;1032;-76
2022/09/04 00:36:45;;;;;;;7.43;5.75;;;;;;;19.08;72.71;99472.09;343956;28;1863;-76
2022/09/04 00:37:05;;;;;;;6.50;5.72;;;;;;;19.08;72.73;99475.56;343522;28;1058;-77
2022/09/04 00:37:22;;;;;;;7.00;5.88;;;;;;;19.07;72.74;99473.03;342680;28;1320;-74
2022/09/04 00:37:44;;;;;;;6.35;5.65;;;;;;;19.05;72.73;99467.88;342682;28;1073;-76
2022/09/04 00:38:11;;;;;;;7.13;5.78;;;;;;;19.04;72.66;99476.75;342465;28;991;-77
2022/09/04 00:38:54;;;;;;;6.43;5.63;;;;;;;19.04;72.83;99482.00;342967;28;2223;-76
2022/09/04 00:39:14;;;;;;;6.32;5.38;;;;;;;19.05;72.70;99477.56;344049;28;1122;-76
2022/09/04 00:39:35;;;;;;;6.25;5.55;;;;;;;19.02;72.62;99475.19;345057;28;1518;-75
2022/09/04 00:40:01;;;;;;;6.40;5.40;;;;;;;19.02;72.77;99477.81;343821;28;1516;-77
2022/09/04 00:40:23;;;;;;;7.53;5.75;;;;;;;19.00;73.02;99469.16;344602;28;1135;-77
2022/09/04 00:40:41;;;;;;;7.72;6.25;;;;;;;19.00;73.06;99482.34;345147;28;1565;-76
2022/09/04 00:41:12;;;;;;;6.93;6.13;;;;;;;18.94;73.25;99471.28;344950;28;1767;-75
2022/09/04 00:41:29;;;;;;;7.63;6.55;;;;;;;18.92;73.25;99474.97;343275;28;1867;-76
2022/09/04 00:41:50;;;;;;;7.47;6.63;;;;;;;18.92;73.31;99473.19;344126;28;1843;-75
2022/09/04 00:42:11;;;;;;;8.23;6.60;;;;;;;18.91;73.41;99474.13;344906;28;1091;-76
2022/09/04 00:43:20;;;;;;;7.50;6.38;;;;;;;18.93;73.05;99471.38;343920;28;1858;-77
2022/09/04 00:44:30;;;;;;;8.27;6.60;;;;;;;18.92;72.94;99472.34;337829;29;1588;-76
2022/09/04 00:44:42;;;;;;;8.90;6.82;;;;;;;18.95;72.75;99477.38;334009;29;1697;-74
2022/09/04 00:45:06;;;;;;;8.85;6.65;;;;;;;18.94;72.89;99476.53;334562;29;1259;-75
2022/09/04 00:45:50;;;;;;;8.90;6.47;;;;;;;18.96;72.88;99474.66;334572;29;1264;-76
2022/09/04 00:46:41;;;;;;;7.90;6.50;;;;;;;18.92;73.17;99477.59;337825;29;1082;-76
2022/09/04 00:47:20;;;;;;;12.82;7.00;;;;;;;18.93;73.16;99479.28;334974;29;1602;-76
2022/09/04 00:48:18;;;;;;;9.07;6.85;;;;;;;18.92;73.17;99481.06;335101;29;1631;-76
2022/09/04 00:48:49;;;;;;;7.70;6.85;;;;;;;18.94;73.30;99475.72;332732;29;2473;-76
2022/09/04 00:49:48;;;;;;;10.13;7.18;;;;;;;18.94;73.11;99480.97;334624;29;1070;-77
2022/09/04 00:50:21;;;;;;;9.00;6.70;;;;;;;18.96;73.04;99473.81;338412;29;1444;-76
2022/09/04 00:50:53;;;;;;;8.07;6.63;;;;;;;18.92;72.93;99482.88;337920;29;1834;-76
2022/09/04 00:51:14;;;;;;;8.35;6.50;;;;;;;18.92;72.93;99478.44;338431;29;1073;-76
2022/09/04 00:51:55;;;;;;;9.80;6.65;;;;;;;18.93;72.87;99489.81;338698;29;1790;-76
2022/09/04 00:52:27;;;;;;;9.18;6.75;;;;;;;18.93;72.83;99485.41;338484;29;1157;-77
2022/09/04 00:53:15;;;;;;;8.80;6.78;;;;;;;18.91;73.00;99486.44;338311;29;1830;-75
2022/09/04 00:53:54;;;;;;;7.50;6.03;;;;;;;18.91;72.92;99489.94;345017;28;857;-77
2022/09/04 00:54:17;;;;;;;8.80;6.60;;;;;;;18.89;73.02;99489.19;345050;28;1170;-76
2022/09/04 00:54:55;;;;;;;8.32;6.70;;;;;;;18.92;72.96;99491.63;343872;28;1801;-76
2022/09/04 00:55:45;;;;;;;8.07;7.05;;;;;;;18.86;72.97;99484.13;343591;28;1781;-77
2022/09/04 00:56:16;;;;;;;11.63;7.20;;;;;;;18.84;73.09;99490.47;341687;28;1974;-74
2022/09/04 00:56:47;;;;;;;8.87;6.80;;;;;;;18.85;73.10;99492.13;342453;28;1863;-76
2022/09/04 00:57:36;;;;;;;8.60;6.50;;;;;;;18.83;73.00;99499.31;344920;28;1027;-77
2022/09/04 00:58:11;;;;;;;7.50;6.65;;;;;;;18.83;73.11;99499.31;344144;28;1050;-76
2022/09/04 00:59:00;;;;;;;8.52;6.85;;;;;;;18.77;73.32;99490.88;343979;28;2514;-76
2022/09/04 00:59:24;;;;;;;8.27;6.88;;;;;;;18.76;73.25;99499.69;344476;28;1732;-77
2022/09/04 00:59:55;;;;;;;10.95;7.40;;;;;;;18.74;73.17;99498.97;344816;28;1769;-77
2022/09/04 01:00:11;;;;;;;10.30;7.25;;;;;;;18.74;73.15;99501.59;342667;28;1739;-76
2022/09/04 01:00:26;;;;;;;11.23;7.15;;;;;;;18.74;73.10;99500.75;343069;28;1930;-76
2022/09/04 01:00:39;;;;;;;10.13;7.00;;;;;;;18.72;73.26;99498.22;343363;28;1008;-76
2022/09/04 01:00:56;;;;;;;8.57;6.80;;;;;;;18.73;73.19;99494.66;342808;28;1918;-76
2022/09/04 01:01:15;;;;;;;8.63;6.90;;;;;;;18.71;73.32;99496.56;342190;28;1815;-76
2022/09/04 01:01:28;;;;;;;8.48;6.78;;;;;;;18.71;73.09;99490.44;343430;28;1176;-76
2022/09/04 01:01:43;;;;;;;9.93;6.88;;;;;;;18.69;73.50;99503.72;342618;28;1053;-77
2022/09/04 01:02:06;;;;;;;9.48;6.78;;;;;;;18.69;73.40;99495.81;342581;28;1788;-76
2022/09/04 01:02:40;;;;;;;8.10;6.90;;;;;;;18.67;73.36;99497.72;343888;28;1955;-76
2022/09/04 01:02:55;;;;;;;9.07;6.80;;;;;;;18.64;73.56;99505.81;343863;28;1717;-75
2022/09/04 01:03:19;;;;;;;9.40;6.78;;;;;;;18.64;73.48;99504.97;342292;28;1220;-75
2022/09/04 01:03:46;;;;;;;9.07;6.90;;;;;;;18.58;73.51;99493.06;342039;28;1790;-76
2022/09/04 01:04:11;;;;;;;9.93;6.93;;;;;;;18.60;73.63;99499.06;340694;29;1191;-76
2022/09/04 01:04:40;;;;;;;8.25;7.32;;;;;;;18.60;73.55;99498.22;340959;28;1960;-76
2022/09/04 01:05:06;;;;;;;9.90;6.85;;;;;;;18.58;73.68;99492.22;340889;28;3826;-75
2022/09/04 01:05:50;;;;;;;9.50;7.30;;;;;;;18.58;73.68;99495.69;341929;28;1836;-76
2022/09/04 01:06:11;;;;;;;8.98;7.18;;;;;;;18.59;73.63;99500.00;343525;28;1463;-76
2022/09/04 01:06:39;;;;;;;9.80;7.25;;;;;;;18.59;73.73;99497.38;341502;28;1845;-77
2022/09/04 01:07:00;;;;;;;10.13;6.95;;;;;;;18.57;73.72;99499.25;341201;28;1814;-75
2022/09/04 01:07:16;;;;;;;12.05;7.10;;;;;;;18.58;73.58;99495.69;340658;29;1048;-75
2022/09/04 01:07:48;;;;;;;10.80;7.10;;;;;;;18.59;73.37;99497.38;343371;28;1083;-75
2022/09/04 01:08:09;;;;;;;10.38;6.43;;;;;;;18.59;73.40;99493.91;343757;28;1255;-75
2022/09/04 01:08:48;;;;;;;8.15;6.57;;;;;;;18.61;73.37;99495.47;343344;28;1195;-74
2022/09/04 01:09:23;;;;;;;8.52;6.78;;;;;;;18.66;72.94;99498.66;344443;28;915;-75
2022/09/04 01:09:53;;;;;;;8.90;6.53;;;;;;;18.62;73.02;99497.19;343420;28;1834;-75
2022/09/04 01:10:11;;;;;;;9.10;6.68;;;;;;;18.63;73.01;99496.22;344344;28;1729;-75
2022/09/04 01:11:00;;;;;;;7.63;6.82;;;;;;;18.63;73.14;99496.22;345053;28;1468;-75
2022/09/04 01:11:55;;;;;;;10.18;7.10;;;;;;;18.60;73.04;99499.06;343321;28;1179;-75
2022/09/04 01:12:22;;;;;;;8.23;7.07;;;;;;;18.60;72.81;99499.06;343723;28;1062;-75
2022/09/04 01:13:08;;;;;;;8.38;6.45;;;;;;;18.62;72.78;99497.19;344760;28;1882;-76
2022/09/04 01:13:32;;;;;;;9.40;6.90;;;;;;;18.64;72.96;99499.72;344848;28;1586;-75
2022/09/04 01:13:54;;;;;;;8.95;6.88;;;;;;;18.63;72.66;99504.09;344840;28;1289;-75
2022/09/04 01:14:43;;;;;;;9.43;7.15;;;;;;;18.64;72.69;99500.53;344966;28;1190;-74
2022/09/04 01:15:13;;;;;;;9.70;6.60;;;;;;;18.64;72.43;99500.53;342719;28;3903;-75
2022/09/04 01:15:37;;;;;;;7.95;6.60;;;;;;;18.65;72.43;99502.25;346142;28;1819;-76
2022/09/04 01:16:00;;;;;;;8.50;6.95;;;;;;;18.65;72.43;99506.66;343383;28;1251;-76
2022/09/04 01:16:30;;;;;;;7.80;6.20;;;;;;;18.67;72.20;99505.63;344419;28;1623;-76
2022/09/04 01:16:46;;;;;;;7.85;6.47;;;;;;;18.67;72.93;99497.72;344248;28;1030;-75
2022/09/04 01:17:21;;;;;;;8.52;6.60;;;;;;;18.66;72.75;99503.91;344439;28;4447;-75
2022/09/04 01:18:00;;;;;;;9.13;6.90;;;;;;;18.62;72.78;99505.06;343346;28;1991;-74
2022/09/04 01:18:42;;;;;;;9.45;6.90;;;;;;;18.58;72.68;99506.22;343668;28;1344;-75
2022/09/04 01:19:28;;;;;;;9.52;6.90;;;;;;;18.61;72.77;99506.00;343805;28;1102;-74
2022/09/04 01:20:07;;;;;;;7.90;6.43;;;;;;;18.64;72.89;99505.81;344002;28;1705;-75
2022/09/04 01:20:47;;;;;;;8.27;6.88;;;;;;;18.64;72.91;99505.81;338855;29;1866;-75
2022/09/04 01:21:18;;;;;;;9.07;6.72;;;;;;;18.61;72.81;99510.44;337938;29;1316;-76
2022/09/04 01:21:39;;;;;;;8.35;6.85;;;;;;;18.59;72.88;99502.63;340964;28;2051;-75
2022/09/04 01:22:12;;;;;;;8.07;6.75;;;;;;;18.56;72.86;99508.13;344970;28;1088;-76
2022/09/04 01:22:50;;;;;;;9.02;6.60;;;;;;;18.54;72.79;99502.13;343504;28;1198;-76
2022/09/04 01:23:13;;;;;;;9.10;6.68;;;;;;;18.55;72.97;99501.16;341029;29;1095;-75
2022/09/04 01:23:57;;;;;;;10.07;6.72;;;;;;;18.53;72.80;99508.31;339674;28;1916;-74
2022/09/04 01:24:31;;;;;;;8.68;6.60;;;;;;;18.52;72.84;99506.66;339699;28;1670;-76
2022/09/04 01:24:58;;;;;;;8.75;6.95;;;;;;;18.51;73.00;99504.94;343798;28;1644;-74
2022/09/04 01:25:22;;;;;;;8.15;6.47;;;;;;;18.50;73.00;99509.38;343741;28;1773;-75
2022/09/04 01:26:12;;;;;;;8.75;6.63;;;;;;;18.51;73.17;99510.22;344405;28;1873;-76
2022/09/04 01:26:36;;;;;;;8.38;6.78;;;;;;;18.52;72.89;99510.13;343842;28;1766;-75
2022/09/04 01:26:58;;;;;;;8.43;6.80;;;;;;;18.55;72.80;99509.06;345017;28;1041;-75
2022/09/04 01:27:12;;;;;;;9.70;6.90;;;;;;;18.55;72.83;99512.56;344789;28;1095;-76
2022/09/04 01:27:47;;;;;;;9.05;7.00;;;;;;;18.58;72.79;99515.94;344844;28;1211;-75
2022/09/04 01:28:03;;;;;;;9.77;6.68;;;;;;;18.56;72.71;99516.84;343628;28;1212;-76
2022/09/04 01:28:58;;;;;;;11.00;6.93;;;;;;;18.53;73.02;99514.44;343323;28;1070;-76
2022/09/04 01:29:51;;;;;;;9.82;7.00;;;;;;;18.47;73.50;99522.75;341064;29;1228;-76
2022/09/04 01:30:15;;;;;;;9.23;7.20;;;;;;;18.49;73.48;99517.38;340802;29;1469;-75
2022/09/04 01:30:37;;;;;;;7.88;6.90;;;;;;;18.51;73.43;99523.38;342200;28;1043;-76
2022/09/04 01:31:01;;;;;;;10.02;6.93;;;;;;;18.49;73.16;99517.38;342117;28;1167;-75
2022/09/04 01:31:31;;;;;;;9.32;6.80;;;;;;;18.50;73.24;99519.91;343447;28;1069;-76
2022/09/04 01:32:10;;;;;;;10.52;7.07;;;;;;;18.50;73.16;99525.16;343669;28;1036;-75
2022/09/04 01:32:22;;;;;;;8.00;6.45;;;;;;;18.51;73.20;99520.75;345525;28;1263;-75
2022/09/04 01:32:44;;;;;;;8.10;6.63;;;;;;;18.52;73.31;99527.72;346216;28;1094;-75
2022/09/04 01:33:38;;;;;;;8.57;6.88;;;;;;;18.53;73.27;99524.09;343990;28;1528;-75
2022/09/04 01:34:17;;;;;;;9.97;7.00;;;;;;;18.52;73.40;99527.72;342163;28;1240;-76
2022/09/04 01:34:47;;;;;;;9.25;7.10;;;;;;;18.51;73.23;99521.59;343607;28;1063;-76
2022/09/04 01:35:25;;;;;;;10.30;7.40;;;;;;;18.53;73.36;99524.09;343065;28;2988;-76
2022/09/04 01:35:56;;;;;;;10.00;7.80;;;;;;;18.53;73.31;99524.09;344868;28;2739;-76
2022/09/04 01:36:13;;;;;;;11.68;7.80;;;;;;;18.53;73.34;99518.84;343576;28;929;-76
2022/09/04 01:36:36;;;;;;;11.90;8.23;;;;;;;18.55;73.26;99527.47;342835;28;1788;-76
2022/09/04 01:37:25;;;;;;;12.23;8.25;;;;;;;18.56;73.28;99523.91;342525;28;1142;-76
2022/09/04 01:37:57;;;;;;;11.40;7.97;;;;;;;18.57;73.07;99525.59;342255;28;1070;-76
2022/09/04 01:38:41;;;;;;;9.93;7.00;;;;;;;18.55;72.96;99522.22;343093;28;1894;-76
2022/09/04 01:38:58;;;;;;;9.77;7.28;;;;;;;18.56;73.01;99523.91;344977;28;1206;-75
2022/09/04 01:39:10;;;;;;;9.60;7.20;;;;;;;18.57;72.97;99525.59;344767;28;1549;-75
2022/09/04 01:39:28;;;;;;;9.20;7.03;;;;;;;18.57;72.89;99525.59;345070;28;1278;-75
2022/09/04 01:39:45;;;;;;;8.77;6.90;;;;;;;18.58;72.97;99522.03;344866;28;1041;-76
2022/09/04 01:40:32;;;;;;;8.88;7.00;;;;;;;18.56;72.68;99524.75;344909;28;2042;-75
2022/09/04 01:41:25;;;;;;;11.55;6.97;;;;;;;18.56;73.20;99523.91;344780;28;1145;-75
2022/09/04 01:41:52;;;;;;;9.57;7.30;;;;;;;18.55;73.29;99524.84;340599;29;1945;-75
2022/09/04 01:42:40;;;;;;;10.57;7.22;;;;;;;18.53;73.15;99524.09;340806;29;1078;-76
2022/09/04 01:43:07;;;;;;;8.30;7.20;;;;;;;18.51;72.52;99520.75;343556;28;1147;-76
2022/09/04 01:43:20;;;;;;;9.05;7.25;;;;;;;18.49;73.10;99517.38;343559;28;1741;-77
2022/09/04 01:43:33;;;;;;;10.23;7.88;;;;;;;18.49;73.07;99530.53;343572;28;1307;-74
2022/09/04 01:43:45;;;;;;;10.80;8.40;;;;;;;18.47;73.27;99527.16;344439;28;1075;-77
2022/09/04 01:43:58;;;;;;;11.27;8.30;;;;;;;18.47;73.12;99521.91;345223;28;1193;-76
2022/09/04 01:44:12;;;;;;;10.93;7.95;;;;;;;18.48;73.21;99523.59;343879;28;1218;-75
2022/09/04 01:44:26;;;;;;;11.60;7.80;;;;;;;18.48;73.25;99523.59;341208;28;1854;-75
2022/09/04 01:44:38;;;;;;;12.07;7.85;;;;;;;18.49;73.28;99525.25;342262;28;1967;-76
2022/09/04 01:44:50;;;;;;;12.38;8.40;;;;;;;18.48;73.26;99521.81;342409;28;1038;-76
2022/09/04 01:45:02;;;;;;;13.25;8.77;;;;;;;18.49;73.18;99533.16;342244;28;1338;-76
2022/09/04 01:45:24;;;;;;;11.82;8.40;;;;;;;18.49;73.09;99527.91;342049;28;1826;-75
2022/09/04 01:45:48;;;;;;;9.93;7.88;;;;;;;18.48;73.07;99524.44;342270;28;1024;-76
2022/09/04 01:46:06;;;;;;;10.45;8.00;;;;;;;18.51;73.01;99526.00;341511;28;1571;-76
2022/09/04 01:46:18;;;;;;;10.88;7.57;;;;;;;18.52;73.01;99527.72;342079;28;1848;-76
2022/09/04 01:46:36;;;;;;;10.23;7.55;;;;;;;18.51;72.97;99526.88;343703;28;1956;-74
2022/09/04 01:47:48;;;;;;;10.13;7.55;;;;;;;18.55;73.19;99528.34;344878;28;1152;-76
2022/09/04 01:48:06;;;;;;;12.65;8.80;;;;;;;18.55;73.33;99522.22;338991;29;1800;-75
2022/09/04 01:48:30;;;;;;;12.32;8.77;;;;;;;18.57;73.46;99530.84;338869;29;1720;-76
2022/09/04 01:48:48;;;;;;;11.60;8.32;;;;;;;18.57;73.32;99528.22;339172;29;967;-75
2022/09/04 01:49:31;;;;;;;12.23;8.63;;;;;;;18.59;73.30;99528.97;338164;29;1323;-77
2022/09/04 01:49:57;;;;;;;12.45;8.88;;;;;;;18.60;73.10;99530.66;339122;29;1858;-77
2022/09/04 01:50:24;;;;;;;10.60;8.25;;;;;;;18.62;73.19;99534.03;338373;29;1146;-76
2022/09/04 01:50:38;;;;;;;11.50;7.68;;;;;;;18.59;73.17;99534.22;338445;29;1925;-75
2022/09/04 01:50:56;;;;;;;12.10;7.82;;;;;;;18.59;73.39;99528.13;337876;29;1491;-76
2022/09/04 01:51:22;;;;;;;9.80;7.72;;;;;;;18.59;73.45;99523.69;337449;29;2075;-76
2022/09/04 01:51:44;;;;;;;9.95;8.05;;;;;;;18.52;73.70;99527.72;337145;29;1077;-76
2022/09/04 01:52:01;;;;;;;11.90;8.30;;;;;;;18.43;73.99;99533.56;337423;29;1839;-76
2022/09/04 01:52:46;;;;;;;10.70;8.02;;;;;;;18.44;74.31;99530.00;337128;29;1983;-76
2022/09/04 01:53:04;;;;;;;10.23;7.80;;;;;;;18.47;74.17;99532.41;337813;29;1534;-76
2022/09/04 01:53:24;;;;;;;13.48;8.68;;;;;;;18.46;74.23;99528.13;337330;29;1708;-75
2022/09/04 01:53:41;;;;;;;14.55;9.18;;;;;;;18.43;74.40;99529.19;337394;29;1789;-76
2022/09/04 01:54:36;;;;;;;13.67;8.73;;;;;;;18.40;74.50;99533.78;338455;28;1224;-76
2022/09/04 01:55:17;;;;;;;13.50;9.23;;;;;;;18.48;74.20;99527.06;337747;29;1034;-76
2022/09/04 01:55:37;;;;;;;13.48;9.35;;;;;;;18.52;74.11;99532.97;337346;29;2263;-76
2022/09/04 01:56:27;;;;;;;14.20;9.25;;;;;;;18.55;74.03;99532.75;343784;28;1608;-76
2022/09/04 01:57:18;;;;;;;11.68;9.32;;;;;;;18.58;73.75;99532.56;343705;28;1731;-76
2022/09/04 01:57:51;;;;;;;12.88;9.43;;;;;;;18.62;73.65;99528.75;337573;29;2091;-76
2022/09/04 01:58:08;;;;;;;13.27;10.00;;;;;;;18.61;73.60;99532.34;336631;29;1753;-74
2022/09/04 01:58:35;;;;;;;13.75;10.20;;;;;;;18.59;73.47;99528.97;340410;28;2638;-76
2022/09/04 01:59:10;;;;;;;15.65;9.82;;;;;;;18.62;73.65;99535.81;345212;28;1611;-76
2022/09/04 01:59:56;;;;;;;14.18;10.60;;;;;;;18.60;73.64;99528.03;344748;28;1226;-77
2022/09/04 02:00:11;;;;;;;14.18;10.40;;;;;;;18.59;73.86;99534.22;345134;28;1502;-76
2022/09/04 02:00:26;;;;;;;14.00;10.10;;;;;;;18.57;73.92;99530.84;345077;28;1335;-76
2022/09/04 02:01:07;;;;;;;16.95;10.10;;;;;;;18.53;73.92;99529.38;344556;28;1646;-74
2022/09/04 02:01:37;;;;;;;16.33;11.35;;;;;;;18.45;74.21;99531.69;338009;29;1613;-76
2022/09/04 02:02:00;;;;;;;23.02;11.02;;;;;;;18.46;74.15;99533.38;343718;28;999;-76
2022/09/04 02:02:20;;;;;;;17.35;10.73;;;;;;;18.45;74.47;99531.69;343335;28;1120;-77
2022/09/04 02:02:59;;;;;;;15.05;11.00;;;;;;;18.43;74.46;99531.81;344282;28;1926;-77
2022/09/04 02:03:25;;;;;;;21.48;11.02;;;;;;;18.32;75.06;99526.41;343456;28;1104;-76
2022/09/04 02:03:51;;;;;;;20.67;10.48;;;;;;;18.26;75.23;99526.81;343199;28;1222;-76
2022/09/04 02:04:20;;;;;;;14.90;10.43;;;;;;;18.20;75.57;99528.06;342930;28;1945;-77
2022/09/04 02:04:52;;;;;;;15.73;10.73;;;;;;;18.23;75.42;99535.78;343108;28;1675;-77
2022/09/04 02:05:05;;;;;;;17.27;10.57;;;;;;;18.21;75.42;99535.03;342336;28;1284;-77
2022/09/04 02:05:23;;;;;;;16.07;10.20;;;;;;;18.23;75.64;99532.28;343665;28;1806;-76
2022/09/04 02:05:38;;;;;;;13.50;9.98;;;;;;;18.22;75.63;99526.19;343654;28;1053;-76
2022/09/04 02:05:56;;;;;;;14.27;10.05;;;;;;;18.23;75.64;99532.28;343457;28;1139;-76
2022/09/04 02:06:33;;;;;;;14.57;9.88;;;;;;;18.30;75.20;99529.13;343002;28;1816;-76
2022/09/04 02:07:33;;;;;;;14.23;9.90;;;;;;;18.33;75.03;99534.22;344265;28;1780;-75
2022/09/04 02:07:53;;;;;;;13.68;9.60;;;;;;;18.31;74.97;99536.09;340301;29;1043;-75
2022/09/04 02:08:34;;;;;;;14.93;9.32;;;;;;;18.32;74.87;99537.78;339902;29;1897;-75
2022/09/04 02:09:09;;;;;;;15.10;9.65;;;;;;;18.34;74.89;99530.63;336785;29;1221;-76
2022/09/04 02:09:49;;;;;;;13.25;9.25;;;;;;;18.37;74.46;99529.56;337497;29;2116;-76
2022/09/04 02:10:44;;;;;;;13.02;9.23;;;;;;;18.41;74.29;99532.84;342333;28;1371;-76
2022/09/04 02:11:11;;;;;;;16.83;9.10;;;;;;;18.44;74.14;99535.28;339418;29;1063;-76
2022/09/04 02:11:27;;;;;;;13.55;9.50;;;;;;;18.44;73.90;99530.00;340990;28;1714;-77
2022/09/04 02:11:47;;;;;;;13.68;9.60;;;;;;;18.45;73.78;99531.69;341451;28;1716;-77
2022/09/04 02:12:21;;;;;;;15.70;9.70;;;;;;;18.47;73.80;99530.66;340206;29;1216;-77
2022/09/04 02:12:49;;;;;;;14.40;9.13;;;;;;;18.47;73.79;99529.78;341008;29;1076;-76
2022/09/04 02:13:21;;;;;;;15.45;10.00;;;;;;;18.42;73.73;99531.91;341227;29;854;-76
2022/09/04 02:14:03;;;;;;;14.13;9.68;;;;;;;18.42;73.85;99538.00;341733;28;1663;-76
2022/09/04 02:14:21;;;;;;;14.63;9.55;;;;;;;18.44;73.81;99530.00;343556;28;2114;-76
2022/09/04 02:14:41;;;;;;;15.10;9.95;;;;;;;18.46;73.72;99533.38;344194;28;1790;-76
2022/09/04 02:15:06;;;;;;;15.82;9.70;;;;;;;18.47;73.23;99532.41;343872;28;1163;-76
2022/09/04 02:15:34;;;;;;;15.23;9.90;;;;;;;18.51;73.57;99531.28;345065;28;1762;-76
2022/09/04 02:15:58;;;;;;;14.30;9.43;;;;;;;18.52;73.42;99527.72;344322;28;1051;-76
2022/09/04 02:16:25;;;;;;;13.45;9.75;;;;;;;18.53;73.38;99534.63;343840;28;965;-76
2022/09/04 02:16:57;;;;;;;15.25;9.73;;;;;;;18.51;73.69;99532.13;344850;28;1623;-76
2022/09/04 02:17:15;;;;;;;13.57;9.32;;;;;;;18.51;73.60;99533.91;344334;28;2076;-76
2022/09/04 02:18:01;;;;;;;15.82;9.63;;;;;;;18.52;73.42;99538.25;344176;28;1775;-76
2022/09/04 02:18:30;;;;;;;23.45;10.15;;;;;;;18.48;73.76;99534.13;344854;28;1239;-76
2022/09/04 02:18:59;;;;;;;15.75;10.20;;;;;;;18.45;73.93;99542.22;345074;28;2459;-76
2022/09/04 02:19:29;;;;;;;17.23;10.45;;;;;;;18.44;73.92;99543.16;344270;28;2137;-76
2022/09/04 02:19:52;;;;;;;15.43;10.25;;;;;;;18.41;74.04;99540.72;342263;28;1906;-76
2022/09/04 02:20:24;;;;;;;19.52;10.10;;;;;;;18.42;74.25;99542.44;342006;28;1056;-76